首页
METAR-TAF:

METAR-TAF

机场 :

伊玛目霍梅尼国际机场

德黑兰, 伊朗

纬度: 35-24-58N, 经度: 51-09-08E, 海拔: 1007米

当前天气观测

该预报发布于51分钟前的09:00 UTC
风速6节,风向
温度 4°C
湿度 70%
气压 1019 hPa
能見度: 8000
少量云层高于3500英尺, 积雨云.
少量云层高于4000英尺
阴天层高于8000英尺
小雨

METAR: OIIE 180900Z 09006KT 8000 -RA FEW035CB FEW040 OVC080 04/M01 Q1019

时间: 13:21 (09:51 UTC)

预报

该预报发布于4小时和21分钟前的05:30 UTC
预报有效从18日的 06点(UTC)到 19日的 12点(UTC)
风速6节,风向西南
能見度: 6000
少量云层高于2500英尺, 积雨云.
散云层高于3000英尺
多云层高于10000英尺
短暂存在
从 18日的 06点(UTC)到 18日的 09点(UTC)
能見度: 2000
雪, 雨, 轻雾
短暂存在
从 18日的 09点(UTC)到 18日的 15点(UTC)
能見度: 4000
雨, 轻雾
成为
从 18日的 15点(UTC)到 18日的 17点(UTC)
能見度: 2000
多云层高于2000英尺
散云层高于2500英尺, 积雨云.
阴天层高于8000英尺
雪, 雨, 轻雾
短暂存在
从 18日的 20点(UTC)到 19日的 08点(UTC)
能見度: 0700
雪, 雾

TAF: OIIE 180530Z 1806/1912 22006KT 6000 FEW025CB SCT030 BKN100 TEMPO 1806/1809 2000 SN RA BR TEMPO 1809/1815 4000 RA BR BECMG 1815/1817 2000 SN RA BR BKN020 SCT025CB OVC080 TEMPO 1820/1908 0700 SN FG

超过4000个机场的气象观测和天气预报(METAR&TAF报告)。

可查询的气象台以黄色和红色小点在地图上表示。

将鼠标移到小点上方,可查看气象台名称。

然后点击查看天气观测和预报。

如需切换地图:点击带黑十字的绿色按钮放大地图;点击带横线的绿色按钮缩小地图;或者点击绿色箭头查看邻近地区的地图。


METAR-TAF: